createdAt,value
2018-03-06T00:01:54.249Z,16.60
2018-03-06T00:04:21.772Z,16.60
2018-03-06T00:06:50.050Z,16.60
2018-03-06T00:09:18.394Z,16.60
2018-03-06T00:11:45.953Z,16.60
2018-03-06T00:14:13.499Z,16.60
2018-03-06T00:16:41.126Z,16.60
2018-03-06T00:19:08.642Z,16.60
2018-03-06T00:21:36.218Z,16.60
2018-03-06T00:24:03.762Z,16.60
2018-03-06T00:26:31.278Z,16.60
2018-03-06T00:28:58.843Z,16.60
2018-03-06T00:31:26.411Z,16.60
2018-03-06T00:33:53.937Z,16.60
2018-03-06T00:36:22.237Z,16.60
2018-03-06T00:38:49.778Z,16.50
2018-03-06T00:41:17.302Z,16.60
2018-03-06T00:43:44.855Z,16.50
2018-03-06T00:46:12.425Z,16.50
2018-03-06T00:48:39.970Z,16.50
2018-03-06T00:51:07.506Z,16.50
2018-03-06T00:53:35.066Z,16.50
2018-03-06T00:56:02.590Z,16.50
2018-03-06T00:58:30.873Z,16.50
2018-03-06T01:00:58.426Z,16.50
2018-03-06T01:03:25.950Z,16.50
2018-03-06T01:05:53.513Z,16.50
2018-03-06T01:08:21.094Z,16.50
2018-03-06T01:10:49.394Z,16.50
2018-03-06T01:13:16.947Z,16.40
2018-03-06T01:15:44.530Z,16.50
2018-03-06T01:18:12.073Z,16.50
2018-03-06T01:20:39.598Z,16.50
2018-03-06T01:23:07.138Z,16.40
2018-03-06T01:25:34.703Z,16.40
2018-03-06T01:28:02.212Z,16.40
2018-03-06T01:30:29.782Z,16.40
2018-03-06T01:32:57.322Z,16.40
2018-03-06T01:35:24.877Z,16.40
2018-03-06T01:37:53.230Z,16.40
2018-03-06T01:40:21.558Z,16.40
2018-03-06T01:42:49.086Z,16.30
2018-03-06T01:45:16.640Z,16.40
2018-03-06T01:47:44.159Z,16.30
2018-03-06T01:50:11.722Z,16.40
2018-03-06T01:52:39.268Z,16.30
2018-03-06T01:55:06.806Z,16.30
2018-03-06T01:57:34.350Z,16.30
2018-03-06T02:00:01.917Z,16.30
2018-03-06T02:02:30.206Z,16.30
2018-03-06T02:04:57.761Z,16.30
2018-03-06T02:07:25.378Z,16.30
2018-03-06T02:09:52.922Z,16.30
2018-03-06T02:12:20.473Z,16.30
2018-03-06T02:14:48.014Z,16.30
2018-03-06T02:17:15.542Z,16.30
2018-03-06T02:19:43.850Z,16.30
2018-03-06T02:22:11.409Z,16.20
2018-03-06T02:24:38.958Z,16.30
2018-03-06T02:27:06.556Z,16.30
2018-03-06T02:29:34.109Z,16.30
2018-03-06T02:32:01.633Z,16.20
2018-03-06T02:34:29.182Z,16.20
2018-03-06T02:36:57.513Z,16.20
2018-03-06T02:39:25.038Z,16.20
2018-03-06T02:41:52.590Z,16.20
2018-03-06T02:44:20.146Z,16.20
2018-03-06T02:46:48.453Z,16.20
2018-03-06T02:49:15.997Z,16.10
2018-03-06T02:51:43.588Z,16.20
2018-03-06T02:54:11.106Z,16.20
2018-03-06T02:56:39.430Z,16.20
2018-03-06T02:59:07.000Z,16.10
2018-03-06T03:01:34.569Z,16.20
2018-03-06T03:04:02.101Z,16.20
2018-03-06T03:06:29.707Z,16.00
2018-03-06T03:08:57.186Z,16.20
2018-03-06T03:11:24.746Z,16.20
2018-03-06T03:13:52.317Z,16.10
2018-03-06T03:16:19.846Z,16.10
2018-03-06T03:18:48.141Z,16.10
2018-03-06T03:21:16.458Z,16.10
2018-03-06T03:23:44.006Z,16.10
2018-03-06T03:26:11.542Z,16.10
2018-03-06T03:28:39.085Z,16.10
2018-03-06T03:31:07.396Z,16.10
2018-03-06T03:33:34.954Z,16.10
2018-03-06T03:36:02.526Z,16.10
2018-03-06T03:38:30.086Z,16.10
2018-03-06T03:40:57.624Z,16.10
2018-03-06T03:43:25.216Z,16.10
2018-03-06T03:45:52.765Z,16.10
2018-03-06T03:48:20.289Z,16.10
2018-03-06T03:50:48.602Z,16.10
2018-03-06T03:53:16.169Z,16.00
2018-03-06T03:55:43.690Z,16.10
2018-03-06T03:58:11.866Z,16.00
2018-03-06T04:00:39.397Z,16.00
2018-03-06T04:03:06.955Z,16.00
2018-03-06T04:05:35.322Z,16.00
2018-03-06T04:08:02.865Z,16.00
2018-03-06T04:10:30.395Z,16.00
2018-03-06T04:12:57.942Z,16.00
2018-03-06T04:15:26.108Z,16.00
2018-03-06T04:17:53.637Z,16.00
2018-03-06T04:20:21.186Z,16.00
2018-03-06T04:22:48.729Z,16.00
2018-03-06T04:25:16.256Z,16.00
2018-03-06T04:27:44.598Z,16.00
2018-03-06T04:30:12.212Z,16.00
2018-03-06T04:32:39.766Z,16.00
2018-03-06T04:35:07.377Z,16.00
2018-03-06T04:37:35.429Z,16.00
2018-03-06T04:40:02.946Z,16.00
2018-03-06T04:42:30.537Z,16.00
2018-03-06T04:44:58.094Z,15.90
2018-03-06T04:47:25.621Z,15.90
2018-03-06T04:49:53.171Z,15.90
2018-03-06T04:52:21.493Z,15.90
2018-03-06T04:54:49.034Z,15.90
2018-03-06T04:57:16.610Z,15.90
2018-03-06T04:59:44.157Z,15.90
2018-03-06T05:02:11.688Z,15.90
2018-03-06T05:04:40.019Z,15.90
2018-03-06T05:07:07.549Z,15.90
2018-03-06T05:09:35.101Z,15.90
2018-03-06T05:12:02.658Z,15.90
2018-03-06T05:14:30.187Z,15.90
2018-03-06T05:16:58.493Z,15.90
2018-03-06T05:19:26.087Z,15.90
2018-03-06T05:21:53.619Z,15.90
2018-03-06T05:24:21.181Z,16.00
2018-03-06T05:26:48.745Z,16.00
2018-03-06T05:29:16.278Z,16.00
2018-03-06T05:31:44.599Z,16.10
2018-03-06T05:34:12.164Z,16.00
2018-03-06T05:36:39.694Z,16.10
2018-03-06T05:39:07.225Z,16.10
2018-03-06T05:41:34.810Z,16.10
2018-03-06T05:44:02.385Z,16.20
2018-03-06T05:46:29.960Z,16.20
2018-03-06T05:48:57.526Z,16.20
2018-03-06T05:51:25.062Z,16.20
2018-03-06T05:53:52.594Z,16.30
2018-03-06T05:56:20.913Z,16.30
2018-03-06T05:58:48.434Z,16.30
2018-03-06T06:01:16.730Z,16.30
2018-03-06T06:03:44.290Z,16.30
2018-03-06T06:06:11.838Z,16.30
2018-03-06T06:08:39.415Z,16.40
2018-03-06T06:11:07.418Z,16.40
2018-03-06T06:13:34.975Z,16.30
2018-03-06T06:16:02.486Z,16.40
2018-03-06T06:18:32.650Z,16.40
2018-03-06T06:21:00.990Z,16.40
2018-03-06T06:23:28.490Z,16.40
2018-03-06T06:25:56.144Z,16.40
2018-03-06T06:28:23.670Z,16.40
2018-03-06T06:30:51.202Z,16.50
2018-03-06T06:33:18.730Z,19.50
2018-03-06T06:35:46.230Z,16.40
2018-03-06T06:38:13.765Z,16.50
2018-03-06T06:40:41.302Z,16.50
2018-03-06T06:43:08.829Z,16.50
2018-03-06T06:45:41.115Z,16.50
2018-03-06T06:50:37.560Z,16.50
2018-03-06T06:53:05.850Z,16.60
2018-03-06T06:55:33.385Z,16.50
2018-03-06T06:58:01.200Z,16.60
2018-03-06T07:00:28.751Z,16.60
2018-03-06T07:02:56.313Z,16.60
2018-03-06T07:05:23.866Z,16.60
2018-03-06T07:07:51.377Z,16.60
2018-03-06T07:10:19.329Z,16.60
2018-03-06T07:12:46.825Z,16.70
2018-03-06T07:15:15.102Z,16.60
2018-03-06T07:17:43.453Z,16.70
2018-03-06T07:20:10.997Z,16.60
2018-03-06T07:22:38.528Z,16.70
2018-03-06T07:25:06.080Z,16.60
2018-03-06T07:27:33.610Z,16.60
2018-03-06T07:30:02.649Z,16.60
2018-03-06T07:32:30.242Z,16.60
2018-03-06T07:34:58.570Z,16.70
2018-03-06T07:37:26.103Z,16.60
2018-03-06T07:39:54.415Z,16.60
2018-03-06T07:42:21.927Z,16.60
2018-03-06T07:44:49.447Z,16.60
2018-03-06T07:47:16.970Z,16.40
2018-03-06T07:49:45.262Z,16.60
2018-03-06T07:52:13.528Z,16.60
2018-03-06T07:54:41.849Z,16.60
2018-03-06T07:57:09.809Z,16.60
2018-03-06T07:59:37.327Z,16.60
2018-03-06T08:02:04.877Z,16.60
2018-03-06T08:04:33.147Z,16.60
2018-03-06T08:07:00.694Z,16.60
2018-03-06T08:09:28.223Z,16.50
2018-03-06T08:11:55.763Z,16.60
2018-03-06T08:14:23.401Z,16.60
2018-03-06T08:16:51.747Z,16.50
2018-03-06T08:19:19.264Z,16.50
2018-03-06T08:21:46.776Z,16.50
2018-03-06T08:24:14.334Z,16.50
2018-03-06T08:26:41.841Z,16.50
2018-03-06T08:29:09.350Z,16.50
2018-03-06T08:31:36.888Z,16.50
2018-03-06T08:34:04.389Z,16.50
2018-03-06T08:36:32.675Z,16.50
2018-03-06T08:39:01.008Z,16.50
2018-03-06T08:41:28.554Z,16.50
2018-03-06T08:43:56.071Z,16.50
2018-03-06T08:46:24.358Z,16.40
2018-03-06T08:48:51.866Z,16.40
2018-03-06T08:51:19.365Z,16.40
2018-03-06T08:53:47.784Z,16.50
2018-03-06T08:56:15.301Z,16.40
2018-03-06T08:58:43.594Z,16.50
2018-03-06T09:01:11.180Z,16.40
2018-03-06T09:03:38.756Z,16.40
2018-03-06T09:06:06.252Z,16.40
2018-03-06T09:08:33.915Z,16.40
2018-03-06T09:11:01.450Z,16.40
2018-03-06T09:13:29.001Z,16.40
2018-03-06T09:15:56.581Z,16.40
2018-03-06T09:18:28.010Z,16.40
2018-03-06T09:20:55.549Z,16.30
2018-03-06T09:23:23.090Z,16.40
2018-03-06T09:25:50.617Z,16.40
2018-03-06T09:28:18.127Z,16.40
2018-03-06T09:30:45.698Z,16.40
2018-03-06T09:33:13.210Z,16.40
2018-03-06T09:35:41.510Z,16.30
2018-03-06T09:38:09.098Z,16.30
2018-03-06T09:40:36.605Z,16.30
2018-03-06T09:43:04.942Z,16.30
2018-03-06T09:45:32.503Z,16.30
2018-03-06T09:48:00.007Z,16.30
2018-03-06T09:50:28.285Z,16.30
2018-03-06T09:52:56.602Z,16.30
2018-03-06T09:55:24.159Z,16.20
2018-03-06T09:57:51.654Z,16.30
2018-03-06T10:00:19.234Z,16.30
2018-03-06T10:02:47.530Z,16.30
2018-03-06T10:05:15.090Z,16.20
2018-03-06T10:07:42.657Z,16.30
2018-03-06T10:10:10.178Z,16.30
2018-03-06T10:12:37.691Z,16.20
2018-03-06T10:15:05.221Z,16.20
2018-03-06T10:17:33.494Z,16.20
2018-03-06T10:20:01.778Z,16.20
2018-03-06T10:22:29.366Z,16.20
2018-03-06T10:24:56.924Z,16.20
2018-03-06T10:27:24.441Z,16.20
2018-03-06T10:29:52.762Z,16.20
2018-03-06T10:32:20.886Z,16.20
2018-03-06T10:34:49.182Z,16.20
2018-03-06T10:37:16.742Z,16.10
2018-03-06T10:39:44.414Z,16.20
2018-03-06T10:42:11.946Z,16.20
2018-03-06T10:44:40.279Z,16.20
2018-03-06T10:47:07.855Z,16.10
2018-03-06T10:49:35.393Z,16.20
2018-03-06T10:52:02.953Z,16.20
2018-03-06T10:54:30.664Z,16.20
2018-03-06T10:56:59.000Z,16.10
2018-03-06T10:59:26.579Z,16.10
2018-03-06T11:01:57.030Z,16.10
2018-03-06T11:04:25.448Z,16.10
2018-03-06T11:06:53.023Z,16.10
2018-03-06T11:09:20.557Z,16.10
2018-03-06T11:11:48.092Z,16.10
2018-03-06T11:14:16.436Z,16.10
2018-03-06T11:16:43.950Z,16.10
2018-03-06T11:19:11.478Z,16.10
2018-03-06T11:21:39.046Z,16.10
2018-03-06T11:24:06.586Z,16.10
2018-03-06T11:26:34.102Z,16.10
2018-03-06T11:29:01.679Z,16.10
2018-03-06T11:31:29.222Z,16.10
2018-03-06T11:33:56.762Z,16.10
2018-03-06T11:36:25.085Z,16.10
2018-03-06T11:38:52.662Z,16.00
2018-03-06T11:41:20.158Z,16.10
2018-03-06T11:43:48.514Z,16.10
2018-03-06T11:46:16.813Z,16.10
2018-03-06T11:48:45.107Z,16.10
2018-03-06T11:51:12.665Z,16.10
2018-03-06T11:53:40.186Z,16.10
2018-03-06T11:56:07.696Z,16.10
2018-03-06T11:58:35.287Z,16.10
2018-03-06T12:01:02.890Z,16.20
2018-03-06T12:03:31.174Z,16.20
2018-03-06T12:05:59.492Z,16.20
2018-03-06T12:08:27.146Z,16.20
2018-03-06T12:10:54.707Z,16.20
2018-03-06T12:13:22.245Z,16.30
2018-03-06T12:15:49.783Z,16.30
2018-03-06T12:18:18.119Z,16.30
2018-03-06T12:20:45.739Z,16.30
2018-03-06T12:23:13.253Z,16.40
2018-03-06T12:25:40.758Z,16.40
2018-03-06T12:28:08.339Z,16.40
2018-03-06T12:30:35.854Z,16.40
2018-03-06T12:33:04.193Z,16.50
2018-03-06T12:35:31.736Z,16.40
2018-03-06T12:37:59.238Z,16.50
2018-03-06T12:40:26.803Z,16.50
2018-03-06T12:42:55.177Z,16.50
2018-03-06T12:45:22.897Z,16.50
2018-03-06T12:47:50.401Z,16.60
2018-03-06T12:50:17.942Z,16.50
2018-03-06T12:52:45.503Z,16.60
2018-03-06T12:55:30.790Z,16.60
2018-03-06T12:57:58.373Z,16.60
2018-03-06T13:00:26.662Z,16.60
2018-03-06T13:02:54.982Z,16.60
2018-03-06T13:05:22.510Z,16.60
2018-03-06T13:07:50.101Z,16.60
2018-03-06T13:10:17.662Z,16.70
2018-03-06T13:12:45.227Z,16.70
2018-03-06T13:15:12.753Z,16.70
2018-03-06T13:17:40.340Z,16.70
2018-03-06T13:20:07.945Z,16.70
2018-03-06T13:22:36.295Z,16.80
2018-03-06T13:25:03.956Z,16.70
2018-03-06T13:27:31.502Z,16.80
2018-03-06T13:29:59.150Z,16.80
2018-03-06T13:32:27.823Z,16.80
2018-03-06T13:34:55.422Z,16.80
2018-03-06T13:37:23.006Z,16.80
2018-03-06T13:39:51.475Z,16.80
2018-03-06T13:42:19.050Z,16.80
2018-03-06T13:44:47.422Z,16.80
2018-03-06T13:47:15.048Z,16.80
2018-03-06T13:49:50.066Z,16.90
2018-03-06T13:52:18.826Z,16.90
2018-03-06T13:54:46.391Z,16.90
2018-03-06T13:57:14.767Z,16.90
2018-03-06T13:59:43.169Z,16.90
2018-03-06T14:02:10.750Z,16.80
2018-03-06T14:04:38.351Z,16.90
2018-03-06T14:07:06.708Z,16.90
2018-03-06T14:09:34.266Z,16.80
2018-03-06T14:12:01.811Z,16.90
2018-03-06T14:14:29.416Z,16.80
2018-03-06T14:16:57.737Z,16.80
2018-03-06T14:19:25.318Z,16.80
2018-03-06T14:21:53.619Z,16.80
2018-03-06T14:24:22.063Z,16.80
2018-03-06T14:26:49.609Z,16.80
2018-03-06T14:29:17.192Z,16.80
2018-03-06T14:31:44.845Z,16.80
2018-03-06T14:34:12.625Z,16.80
2018-03-06T14:36:40.229Z,16.80
2018-03-06T14:39:08.548Z,16.80
2018-03-06T14:41:36.133Z,16.80
2018-03-06T14:44:03.743Z,16.80
2018-03-06T14:46:31.281Z,16.80
2018-03-06T14:49:03.905Z,16.80
2018-03-06T14:51:33.188Z,16.80
2018-03-06T14:54:00.826Z,16.80
2018-03-06T14:56:30.304Z,16.80
2018-03-06T14:58:58.066Z,16.70
2018-03-06T15:01:27.390Z,16.80
2018-03-06T15:03:55.731Z,16.80
2018-03-06T15:06:23.686Z,16.70
2018-03-06T15:08:51.267Z,16.70
2018-03-06T15:11:18.782Z,16.70
2018-03-06T15:13:46.390Z,16.70
2018-03-06T15:16:14.732Z,16.70
2018-03-06T15:18:42.470Z,16.70
2018-03-06T15:21:10.794Z,16.70
2018-03-06T15:23:38.349Z,16.70
2018-03-06T15:26:05.902Z,16.70
2018-03-06T15:28:33.477Z,16.70
2018-03-06T15:31:01.086Z,16.70
2018-03-06T15:33:30.047Z,16.70
2018-03-06T15:35:57.693Z,16.60
2018-03-06T15:38:25.355Z,16.70
2018-03-06T15:40:52.947Z,16.70
2018-03-06T15:43:20.542Z,16.70
2018-03-06T15:45:49.169Z,16.60
2018-03-06T15:48:16.842Z,16.60
2018-03-06T15:50:44.466Z,16.70
2018-03-06T15:53:12.020Z,16.60
2018-03-06T15:55:40.216Z,16.60
2018-03-06T15:58:07.810Z,16.60
2018-03-06T16:00:35.390Z,16.60
2018-03-06T16:03:03.728Z,16.60
2018-03-06T16:05:31.323Z,16.60
2018-03-06T16:08:00.010Z,16.60
2018-03-06T16:10:29.007Z,16.60
2018-03-06T16:12:57.347Z,16.60
2018-03-06T16:15:25.178Z,16.60
2018-03-06T16:17:52.911Z,16.60
2018-03-06T16:20:21.238Z,16.60
2018-03-06T16:22:48.902Z,16.50
2018-03-06T16:25:16.557Z,16.60
2018-03-06T16:27:44.228Z,16.50
2018-03-06T16:30:15.805Z,16.50
2018-03-06T16:35:17.770Z,16.50
2018-03-06T16:37:45.366Z,16.50
2018-03-06T16:40:13.008Z,16.50
2018-03-06T16:42:40.663Z,16.50
2018-03-06T16:45:10.569Z,16.50
2018-03-06T16:50:15.200Z,16.50
2018-03-06T16:52:51.972Z,16.50
2018-03-06T16:55:21.067Z,16.50
2018-03-06T16:57:48.758Z,16.50
2018-03-06T17:00:16.278Z,16.50
2018-03-06T17:02:44.969Z,16.50
2018-03-06T17:05:15.670Z,16.50
2018-03-06T17:07:46.700Z,16.50
2018-03-06T17:15:23.525Z,16.50
2018-03-06T17:17:52.876Z,16.50
2018-03-06T17:20:20.693Z,16.50
2018-03-06T17:22:49.095Z,16.50
2018-03-06T17:25:18.012Z,16.50
2018-03-06T17:27:47.210Z,16.50
2018-03-06T17:30:17.110Z,16.60
2018-03-06T17:32:46.735Z,16.60
2018-03-06T17:35:15.624Z,16.60
2018-03-06T17:37:44.603Z,16.60
2018-03-06T17:40:13.628Z,14.90
2018-03-06T17:47:50.459Z,16.70
2018-03-06T17:50:19.526Z,16.70
2018-03-06T17:52:49.538Z,16.80
2018-03-06T17:55:19.554Z,16.80
2018-03-06T17:57:49.189Z,16.80
2018-03-06T18:00:16.957Z,16.80
2018-03-06T18:02:44.641Z,16.80
2018-03-06T18:05:14.197Z,16.80
2018-03-06T18:07:42.987Z,16.80
2018-03-06T18:10:13.021Z,16.90
2018-03-06T18:12:42.202Z,16.80
2018-03-06T18:15:11.710Z,16.90
2018-03-06T18:20:14.610Z,16.90
2018-03-06T18:22:43.135Z,16.90
2018-03-06T18:25:12.699Z,17.00
2018-03-06T18:27:41.693Z,17.00
2018-03-06T18:30:12.041Z,17.00
2018-03-06T18:32:39.681Z,16.90
2018-03-06T18:35:08.677Z,17.00
2018-03-06T18:37:41.066Z,17.00
2018-03-06T18:40:09.427Z,16.90
2018-03-06T18:42:37.306Z,17.00
2018-03-06T18:45:04.911Z,17.00
2018-03-06T18:47:35.663Z,17.00
2018-03-06T18:50:04.398Z,17.00
2018-03-06T18:52:34.647Z,17.00
2018-03-06T18:55:02.304Z,17.00
2018-03-06T18:57:32.180Z,17.00
2018-03-06T19:00:38.842Z,17.00
2018-03-06T19:03:16.862Z,17.00
2018-03-06T19:19:10.952Z,16.90
2018-03-06T19:21:40.486Z,16.90
2018-03-06T19:24:10.677Z,17.00
2018-03-06T19:26:39.857Z,16.90
2018-03-06T19:29:09.755Z,17.00
2018-03-06T19:31:40.571Z,17.00
2018-03-06T19:34:13.302Z,16.90
2018-03-06T19:36:41.704Z,17.00
2018-03-06T19:41:43.752Z,17.00
2018-03-06T19:47:15.461Z,17.00
2018-03-06T19:52:30.828Z,17.00
2018-03-06T19:55:02.223Z,17.00
2018-03-06T19:57:30.249Z,17.00
2018-03-06T19:59:58.254Z,17.00
2018-03-06T20:02:25.906Z,17.00
2018-03-06T20:04:54.482Z,17.10
2018-03-06T20:07:24.115Z,17.10
2018-03-06T20:09:53.885Z,17.10
2018-03-06T20:12:24.816Z,17.00
2018-03-06T20:15:04.590Z,17.10
2018-03-06T20:17:34.423Z,17.10
2018-03-06T20:20:05.320Z,17.10
2018-03-06T20:22:36.572Z,17.10
2018-03-06T20:27:56.380Z,17.00
2018-03-06T20:30:31.402Z,17.10
2018-03-06T20:33:06.813Z,17.00
2018-03-06T20:35:36.006Z,17.10
2018-03-06T20:38:05.745Z,17.10
2018-03-06T20:40:33.929Z,17.10
2018-03-06T20:43:03.230Z,17.10
2018-03-06T20:45:49.633Z,17.10
2018-03-06T20:50:53.135Z,17.10
2018-03-06T20:53:27.982Z,17.00
2018-03-06T20:55:57.795Z,17.10
2018-03-06T20:58:28.072Z,17.10
2018-03-06T21:00:57.009Z,17.10
2018-03-06T21:16:28.352Z,17.50
2018-03-06T21:18:55.969Z,17.50
2018-03-06T21:34:31.325Z,17.70
2018-03-06T21:37:04.239Z,17.60
2018-03-06T21:39:34.967Z,17.50
2018-03-06T21:42:02.729Z,17.40
2018-03-06T21:44:30.800Z,17.30
2018-03-06T21:46:58.441Z,17.30
2018-03-06T21:49:27.378Z,17.30
2018-03-06T21:52:03.127Z,17.20
2018-03-06T21:54:34.012Z,17.20
2018-03-06T21:57:03.031Z,17.20
2018-03-06T21:59:32.154Z,17.10
2018-03-06T22:02:01.080Z,17.10
2018-03-06T22:04:30.461Z,17.10
2018-03-06T22:06:58.576Z,17.10
2018-03-06T22:09:27.306Z,17.10
2018-03-06T22:11:56.890Z,17.10
2018-03-06T22:14:26.519Z,17.10
2018-03-06T22:16:56.662Z,17.10
2018-03-06T22:19:25.321Z,17.10
2018-03-06T22:21:54.753Z,17.10
2018-03-06T22:24:28.724Z,17.10
2018-03-06T22:26:57.328Z,17.00
2018-03-06T22:29:29.210Z,17.00
2018-03-06T22:31:57.378Z,17.00
2018-03-06T22:34:26.053Z,17.00
2018-03-06T22:36:54.372Z,17.00
2018-03-06T22:39:22.843Z,17.00
2018-03-06T22:41:51.143Z,17.00
2018-03-06T22:44:18.717Z,17.00
2018-03-06T22:46:48.745Z,17.00
2018-03-06T22:51:56.358Z,17.00
2018-03-06T22:54:26.361Z,16.90
2018-03-06T22:56:56.139Z,17.00
2018-03-06T22:59:24.474Z,17.00
2018-03-06T23:01:52.463Z,17.00
2018-03-06T23:04:21.123Z,17.00
2018-03-06T23:06:49.639Z,17.00
2018-03-06T23:09:18.009Z,16.90
2018-03-06T23:11:47.182Z,16.90
2018-03-06T23:14:14.755Z,16.90
2018-03-06T23:16:42.321Z,16.90
2018-03-06T23:19:09.921Z,16.90
2018-03-06T23:21:38.241Z,16.90
2018-03-06T23:24:07.169Z,16.90
2018-03-06T23:26:34.790Z,16.90
2018-03-06T23:29:02.456Z,16.90
2018-03-06T23:31:30.072Z,16.90
2018-03-06T23:33:58.571Z,16.90
2018-03-06T23:36:27.696Z,16.80
2018-03-06T23:38:58.032Z,16.90
2018-03-06T23:41:25.888Z,16.90
2018-03-06T23:43:53.398Z,16.90
2018-03-06T23:46:20.986Z,16.90
2018-03-06T23:48:48.567Z,16.90
2018-03-06T23:51:16.165Z,16.90
2018-03-06T23:53:43.759Z,16.90
2018-03-06T23:56:12.094Z,16.90
2018-03-06T23:58:40.038Z,16.80
